Terminal Aerodrome Forecast
Issued by NWS

Home | Current Version | Previous Version | Text Only | Print | Product List | Glossary On
Versions: 1 2 3 4 5 6 7 8 9 10 11 12 13 14 15 16 17 18
000
FTUS45 KRIW 151600 AAC
TAFBPI
TAF AMD
KBPI 151603Z 1516/1612 33014KT 3SM -SN SCT015 OVC030
      TEMPO 1516/1518 3/4SM -SN BR BKN010 OVC040
     FM151900 32014G22KT 3SM -SN SCT010 OVC015
     FM152300 VRB06KT 5SM -SN OVC020
     FM160200 VRB06KT P6SM OVC035=

USA.gov is the U.S. government's official web portal to all federal, state and local government web resources and services.